createdAt,value
2023-10-09T00:00:55.975Z,492.4
2023-10-09T00:01:58.044Z,492.8
2023-10-09T00:03:00.481Z,492.7
2023-10-09T00:04:03.050Z,492.3
2023-10-09T00:05:04.900Z,492.6
2023-10-09T00:06:07.286Z,492.4
2023-10-09T00:07:10.171Z,492.4
2023-10-09T00:08:12.075Z,492.9
2023-10-09T00:09:14.126Z,492.6
2023-10-09T00:10:15.856Z,492.6
2023-10-09T00:11:17.617Z,492.6
2023-10-09T00:12:19.569Z,492.8
2023-10-09T00:13:21.431Z,492.7
2023-10-09T00:14:23.166Z,492.7
2023-10-09T00:15:25.175Z,493
2023-10-09T00:16:27.307Z,492.9
2023-10-09T00:17:32.190Z,493.2
2023-10-09T00:18:34.333Z,493.3
2023-10-09T00:19:36.128Z,493.3
2023-10-09T00:20:37.822Z,493.1
2023-10-09T00:21:39.548Z,492.6
2023-10-09T00:22:41.231Z,493.1
2023-10-09T00:23:43.487Z,492.9
2023-10-09T00:24:45.172Z,493.2
2023-10-09T00:25:46.855Z,493.7
2023-10-09T00:26:48.583Z,493.7
2023-10-09T00:27:50.290Z,494.2
2023-10-09T00:28:52.010Z,493.8
2023-10-09T00:29:53.891Z,493.6
2023-10-09T00:30:55.735Z,493.4
2023-10-09T00:31:57.503Z,493.6
2023-10-09T00:32:59.929Z,493.1
2023-10-09T00:34:01.937Z,493.2
2023-10-09T00:35:03.671Z,492.8
2023-10-09T00:36:05.600Z,492.9
2023-10-09T00:37:07.356Z,492.9
2023-10-09T00:38:09.103Z,493.4
2023-10-09T00:39:11.183Z,492.7
2023-10-09T00:40:12.924Z,492.8
2023-10-09T00:41:14.654Z,492.6
2023-10-09T00:42:16.663Z,493
2023-10-09T00:43:18.605Z,492.5
2023-10-09T00:44:20.368Z,492.7
2023-10-09T00:45:22.779Z,492.5
2023-10-09T00:46:24.680Z,492.5
2023-10-09T00:47:26.458Z,492.2
2023-10-09T00:48:28.285Z,492.4
2023-10-09T00:49:29.965Z,492.3
2023-10-09T00:50:31.649Z,491.9
2023-10-09T00:51:33.598Z,492.4
2023-10-09T00:52:35.403Z,492.1
2023-10-09T00:53:37.238Z,492
2023-10-09T00:54:39.372Z,491.9
2023-10-09T00:55:41.180Z,492.2
2023-10-09T00:56:42.869Z,491.5
2023-10-09T00:57:44.615Z,491.8
2023-10-09T00:58:46.306Z,491.9
2023-10-09T00:59:48.000Z,491.6
2023-10-09T01:00:49.697Z,492
2023-10-09T01:01:51.769Z,491.4
2023-10-09T01:02:54.169Z,491
2023-10-09T01:03:56.967Z,491.2
2023-10-09T01:04:58.718Z,490.6
2023-10-09T01:06:00.667Z,490.9
2023-10-09T01:07:02.378Z,490.7
2023-10-09T01:08:04.085Z,491.4
2023-10-09T01:09:05.932Z,491
2023-10-09T01:10:08.457Z,491.1
2023-10-09T01:11:10.855Z,490.9
2023-10-09T01:12:12.795Z,490.9
2023-10-09T01:13:15.183Z,490.7
2023-10-09T01:14:17.409Z,490.6
2023-10-09T01:15:19.317Z,490.7
2023-10-09T01:16:21.388Z,490
2023-10-09T01:17:23.407Z,489.1
2023-10-09T01:18:25.221Z,489.1
2023-10-09T01:19:26.951Z,488.1
2023-10-09T01:20:28.659Z,487.4
2023-10-09T01:21:30.812Z,487.4
2023-10-09T01:22:32.587Z,487.5
2023-10-09T01:23:34.263Z,487.3
2023-10-09T01:24:36.463Z,487.5
2023-10-09T01:25:38.403Z,487.8
2023-10-09T01:26:40.157Z,488.2
2023-10-09T01:27:42.110Z,487.8
2023-10-09T01:28:43.805Z,487.7
2023-10-09T01:29:45.869Z,487.1
2023-10-09T01:30:47.589Z,486.8
2023-10-09T01:31:49.522Z,486.1
2023-10-09T01:32:51.629Z,486.2
2023-10-09T01:33:53.956Z,485.9
2023-10-09T01:34:55.807Z,486.3
2023-10-09T01:35:57.820Z,486.4
2023-10-09T01:36:59.525Z,486.3
2023-10-09T01:38:01.232Z,486.2
2023-10-09T01:39:03.237Z,486.8
2023-10-09T01:40:05.036Z,486.4
2023-10-09T01:41:06.830Z,486.2
2023-10-09T01:42:08.652Z,486.3
2023-10-09T01:43:10.475Z,486.1
2023-10-09T01:44:12.930Z,485.9
2023-10-09T01:45:15.012Z,485.7
2023-10-09T01:46:16.955Z,485.1
2023-10-09T01:47:18.993Z,485.1
2023-10-09T01:48:21.420Z,485.2
2023-10-09T01:49:23.414Z,484.8
2023-10-09T01:50:25.124Z,485.9
2023-10-09T01:51:27.206Z,486.3
2023-10-09T01:52:28.918Z,486.2
2023-10-09T01:53:30.660Z,485.6
2023-10-09T01:54:32.665Z,485.1
2023-10-09T01:55:34.630Z,484.1
2023-10-09T01:56:36.441Z,483.3
2023-10-09T01:57:38.516Z,483.5
2023-10-09T01:58:40.278Z,482.6
2023-10-09T01:59:41.963Z,482.7
2023-10-09T02:00:43.705Z,482.9
2023-10-09T02:01:45.735Z,483.1
2023-10-09T02:02:48.252Z,483.4
2023-10-09T02:03:50.925Z,483.5
2023-10-09T02:04:52.799Z,483.2
2023-10-09T02:05:54.975Z,482.8
2023-10-09T02:06:56.807Z,482.2
2023-10-09T02:07:58.554Z,482.8
2023-10-09T02:09:00.354Z,482.4
2023-10-09T02:10:02.161Z,482
2023-10-09T02:11:03.990Z,482.4
2023-10-09T02:12:06.411Z,482.7
2023-10-09T02:13:09.393Z,482.6
2023-10-09T02:14:11.233Z,482.9
2023-10-09T02:15:13.237Z,482.7
2023-10-09T02:16:15.681Z,483.1
2023-10-09T02:17:17.459Z,482.6
2023-10-09T02:18:19.692Z,482.6
2023-10-09T02:19:21.645Z,482.5
2023-10-09T02:20:23.369Z,482.2
2023-10-09T02:21:25.278Z,482.2
2023-10-09T02:22:26.981Z,481.6
2023-10-09T02:23:28.716Z,481.3
2023-10-09T02:24:30.629Z,481.1
2023-10-09T02:25:32.355Z,480.8
2023-10-09T02:26:34.108Z,481
2023-10-09T02:27:36.083Z,481
2023-10-09T02:28:38.032Z,480.8
2023-10-09T02:29:39.965Z,481.3
2023-10-09T02:30:41.677Z,481.1
2023-10-09T02:31:43.660Z,481.4
2023-10-09T02:32:45.479Z,481.6
2023-10-09T02:33:47.612Z,481.3
2023-10-09T02:34:49.398Z,481.5
2023-10-09T02:35:51.268Z,480.9
2023-10-09T02:36:52.966Z,480.2
2023-10-09T02:37:54.763Z,480.1
2023-10-09T02:38:56.628Z,479.9
2023-10-09T02:39:58.296Z,479.1
2023-10-09T02:41:00.024Z,479
2023-10-09T02:42:02.326Z,478.7
2023-10-09T02:43:04.454Z,478.5
2023-10-09T02:44:06.277Z,478.9
2023-10-09T02:45:08.449Z,478.6
2023-10-09T02:46:10.300Z,478.5
2023-10-09T02:47:12.143Z,478.3
2023-10-09T02:48:14.217Z,477.8
2023-10-09T02:49:16.018Z,477.8
2023-10-09T02:50:17.717Z,477.2
2023-10-09T02:51:19.939Z,477.9
2023-10-09T02:52:21.643Z,477.6
2023-10-09T02:53:23.396Z,477.7
2023-10-09T02:54:25.721Z,478.4
2023-10-09T02:55:27.481Z,478.1
2023-10-09T02:56:30.036Z,478.3
2023-10-09T02:57:32.018Z,478.7
2023-10-09T02:58:34.245Z,477.9
2023-10-09T02:59:35.977Z,478.2
2023-10-09T03:00:38.466Z,478.6
2023-10-09T03:01:40.444Z,478.3
2023-10-09T03:02:42.535Z,478.5
2023-10-09T03:03:44.950Z,478.7
2023-10-09T03:04:47.303Z,478.4
2023-10-09T03:05:49.114Z,478.2
2023-10-09T03:06:50.850Z,477.5
2023-10-09T03:07:52.574Z,477.3
2023-10-09T03:08:54.310Z,477.2
2023-10-09T03:09:56.060Z,477
2023-10-09T03:10:57.759Z,477.2
2023-10-09T03:11:59.500Z,476.8
2023-10-09T03:13:01.202Z,477
2023-10-09T03:14:03.069Z,476.5
2023-10-09T03:15:05.040Z,476.1
2023-10-09T03:16:06.767Z,476.5
2023-10-09T03:17:08.755Z,476.4
2023-10-09T03:18:11.038Z,476.4
2023-10-09T03:19:12.820Z,476.3
2023-10-09T03:20:14.707Z,476.4
2023-10-09T03:21:16.560Z,476.2
2023-10-09T03:22:18.413Z,476.3
2023-10-09T03:23:20.771Z,476.2
2023-10-09T03:24:22.948Z,476.1
2023-10-09T03:25:24.677Z,475.9
2023-10-09T03:26:26.388Z,475.5
2023-10-09T03:27:28.202Z,475.7
2023-10-09T03:28:29.884Z,475.3
2023-10-09T03:29:31.866Z,475
2023-10-09T03:30:34.516Z,475.4
2023-10-09T03:31:36.373Z,475.9
2023-10-09T03:32:38.246Z,475.5
2023-10-09T03:33:40.096Z,475.6
2023-10-09T03:34:41.837Z,475.6
2023-10-09T03:35:43.582Z,475.7
2023-10-09T03:36:45.312Z,475.7
2023-10-09T03:37:47.469Z,475.2
2023-10-09T03:38:49.144Z,475.7
2023-10-09T03:39:50.853Z,475.1
2023-10-09T03:40:52.565Z,475.3
2023-10-09T03:41:54.376Z,475.8
2023-10-09T03:42:56.103Z,475.2
2023-10-09T03:43:57.843Z,475.1
2023-10-09T03:45:00.444Z,475
2023-10-09T03:46:02.488Z,475
2023-10-09T03:47:04.224Z,474.2
2023-10-09T03:48:06.567Z,474.8
2023-10-09T03:49:08.327Z,474.5
2023-10-09T03:50:10.070Z,474.5
2023-10-09T03:51:12.289Z,474.4
2023-10-09T03:52:14.078Z,474.6
2023-10-09T03:53:15.763Z,474.2
2023-10-09T03:54:19.024Z,474.2
2023-10-09T03:55:20.780Z,474.2
2023-10-09T03:56:22.598Z,474.3
2023-10-09T03:57:24.647Z,473.9
2023-10-09T03:58:26.648Z,474.3
2023-10-09T03:59:28.357Z,474
2023-10-09T04:00:30.919Z,473.8
2023-10-09T04:01:33.248Z,474.2
2023-10-09T04:02:35.266Z,473.8
2023-10-09T04:03:37.801Z,473.7
2023-10-09T04:04:40.232Z,474
2023-10-09T04:05:42.134Z,474
2023-10-09T04:06:43.874Z,474.1
2023-10-09T04:07:45.561Z,473.7
2023-10-09T04:08:47.260Z,474
2023-10-09T04:09:49.749Z,473.6
2023-10-09T04:10:53.580Z,473.6
2023-10-09T04:11:56.846Z,473.7
2023-10-09T04:12:58.562Z,473.5
2023-10-09T04:14:00.327Z,473.5
2023-10-09T04:15:02.649Z,473.6
2023-10-09T04:16:04.841Z,473.7
2023-10-09T04:17:06.648Z,473.4
2023-10-09T04:18:09.142Z,473.7
2023-10-09T04:19:11.491Z,473.7
2023-10-09T04:20:13.490Z,473.6
2023-10-09T04:21:15.453Z,473.1
2023-10-09T04:22:17.234Z,473.6
2023-10-09T04:23:18.989Z,473.4
2023-10-09T04:24:20.816Z,473.2
2023-10-09T04:25:22.543Z,473
2023-10-09T04:26:24.293Z,473.3
2023-10-09T04:27:26.148Z,473.8
2023-10-09T04:28:27.882Z,473.6
2023-10-09T04:29:29.561Z,473.7
2023-10-09T04:30:31.849Z,473.6
2023-10-09T04:31:34.570Z,473.7
2023-10-09T04:32:36.695Z,473.6
2023-10-09T04:33:38.617Z,473
2023-10-09T04:34:40.440Z,472.9
2023-10-09T04:35:42.221Z,472.7
2023-10-09T04:36:44.318Z,472.7
2023-10-09T04:37:46.086Z,473.2
2023-10-09T04:38:47.814Z,473
2023-10-09T04:39:49.594Z,472.5
2023-10-09T04:40:51.340Z,472.7
2023-10-09T04:41:53.482Z,471.9
2023-10-09T04:42:55.359Z,472.4
2023-10-09T04:43:57.089Z,472.2
2023-10-09T04:44:59.024Z,471.5
2023-10-09T04:46:00.966Z,471.4
2023-10-09T04:47:03.097Z,471.6
2023-10-09T04:48:05.300Z,471.9
2023-10-09T04:49:07.036Z,471.8
2023-10-09T04:50:08.781Z,471.8
2023-10-09T04:51:10.978Z,471.9
2023-10-09T04:52:12.795Z,472
2023-10-09T04:53:14.535Z,472.2
2023-10-09T04:54:16.599Z,472.7
2023-10-09T04:55:18.426Z,472.3
2023-10-09T04:56:20.405Z,472.4
2023-10-09T04:57:22.355Z,472.3
2023-10-09T04:58:24.083Z,472.2
2023-10-09T04:59:26.545Z,472.3
2023-10-09T05:00:30.292Z,472.3
2023-10-09T05:01:32.324Z,471.7
2023-10-09T05:02:34.612Z,471.3
2023-10-09T05:03:37.056Z,471.2
2023-10-09T05:04:39.214Z,470.6
2023-10-09T05:05:40.942Z,470.8
2023-10-09T05:06:42.902Z,470.4
2023-10-09T05:07:44.690Z,470.3
2023-10-09T05:08:46.364Z,470.3
2023-10-09T05:09:48.250Z,470.1
2023-10-09T05:10:49.983Z,470.3
2023-10-09T05:11:51.736Z,470.2
2023-10-09T05:12:53.478Z,470
2023-10-09T05:13:55.283Z,470.2
2023-10-09T05:14:57.077Z,470.3
2023-10-09T05:15:59.142Z,470.3
2023-10-09T05:17:01.025Z,470.3
2023-10-09T05:18:03.731Z,470.2
2023-10-09T05:19:05.588Z,470.3
2023-10-09T05:20:07.283Z,470.1
2023-10-09T05:21:09.174Z,470.1
2023-10-09T05:22:10.937Z,469.9
2023-10-09T05:23:12.659Z,470.4
2023-10-09T05:24:16.912Z,469.9
2023-10-09T05:25:18.704Z,470.1
2023-10-09T05:26:20.534Z,469.8
2023-10-09T05:27:22.338Z,469.6
2023-10-09T05:28:24.179Z,469.6
2023-10-09T05:29:25.961Z,469.2
2023-10-09T05:30:28.380Z,468.8
2023-10-09T05:31:30.480Z,468.9
2023-10-09T05:32:32.359Z,468.5
2023-10-09T05:33:34.702Z,468.2
2023-10-09T05:34:36.666Z,468.5
2023-10-09T05:35:38.407Z,468.6
2023-10-09T05:36:40.642Z,468.1
2023-10-09T05:37:42.369Z,468.1
2023-10-09T05:38:44.078Z,468.3
2023-10-09T05:39:46.046Z,468.1
2023-10-09T05:40:47.835Z,467.9
2023-10-09T05:41:49.874Z,467.9
2023-10-09T05:42:51.683Z,467.9
2023-10-09T05:43:53.409Z,467.6
2023-10-09T05:44:55.140Z,467.4
2023-10-09T05:45:57.520Z,467.2
2023-10-09T05:46:59.341Z,466.9
2023-10-09T05:48:01.391Z,466.4
2023-10-09T05:49:03.648Z,466.4
2023-10-09T05:50:05.500Z,465.9
2023-10-09T05:51:07.548Z,465.9
2023-10-09T05:52:09.408Z,465.8
2023-10-09T05:53:11.340Z,465.8
2023-10-09T05:54:13.411Z,465.9
2023-10-09T05:55:15.273Z,465.5
2023-10-09T05:56:17.019Z,465.6
2023-10-09T05:57:19.166Z,465.6
2023-10-09T05:58:20.974Z,465.6
2023-10-09T05:59:22.744Z,465.4
2023-10-09T06:00:24.568Z,465.3
2023-10-09T06:01:26.627Z,465.3
2023-10-09T06:02:28.443Z,464.9
2023-10-09T06:03:30.706Z,464.5
2023-10-09T06:04:33.362Z,464.2
2023-10-09T06:05:35.231Z,463.8
2023-10-09T06:06:37.122Z,463.8
2023-10-09T06:07:39.214Z,463.2
2023-10-09T06:08:40.973Z,463.3
2023-10-09T06:09:43.128Z,463
2023-10-09T06:10:44.974Z,463.5
2023-10-09T06:11:46.783Z,463
2023-10-09T06:12:58.846Z,463.1
2023-10-09T06:14:00.789Z,463
2023-10-09T06:15:02.793Z,463.2
2023-10-09T06:16:04.866Z,463.3
2023-10-09T06:17:06.712Z,463.5
2023-10-09T06:18:09.098Z,463.7
2023-10-09T06:19:10.912Z,463.1
2023-10-09T06:20:12.879Z,462.9
2023-10-09T06:21:14.841Z,462.8
2023-10-09T06:22:16.586Z,462.3
2023-10-09T06:23:18.484Z,462.1
2023-10-09T06:24:20.501Z,461.8
2023-10-09T06:25:22.229Z,461.6
2023-10-09T06:26:24.034Z,461.6
2023-10-09T06:27:26.443Z,461.6
2023-10-09T06:28:28.154Z,461.5
2023-10-09T06:29:29.915Z,461.7
2023-10-09T06:30:31.825Z,461.9
2023-10-09T06:31:33.782Z,461.9
2023-10-09T06:32:35.937Z,461.9
2023-10-09T06:33:37.979Z,462.2
2023-10-09T06:34:39.808Z,462.2
2023-10-09T06:35:41.631Z,462.2
2023-10-09T06:36:43.598Z,461.9
2023-10-09T06:37:49.534Z,462.1
2023-10-09T06:38:51.248Z,461.7
2023-10-09T06:39:52.963Z,462.1
2023-10-09T06:40:54.743Z,461.9
2023-10-09T06:41:56.765Z,461.7
2023-10-09T06:42:58.544Z,461.6
2023-10-09T06:44:00.300Z,461.6
2023-10-09T06:45:02.193Z,461.1
2023-10-09T06:46:04.212Z,460.8
2023-10-09T06:47:05.973Z,460.7
2023-10-09T06:48:08.306Z,460.4
2023-10-09T06:49:10.705Z,460.5
2023-10-09T06:50:12.445Z,460.7
2023-10-09T06:51:14.829Z,460.4
2023-10-09T06:52:17.280Z,460.7
2023-10-09T06:53:28.132Z,460.7
2023-10-09T06:54:30.102Z,461
2023-10-09T06:55:31.959Z,460.5
2023-10-09T06:56:33.771Z,461.3
2023-10-09T06:57:35.779Z,461.3
2023-10-09T06:58:37.523Z,461
2023-10-09T06:59:39.237Z,460.8
2023-10-09T07:00:41.357Z,460.8
2023-10-09T07:01:43.538Z,461
2023-10-09T07:02:45.606Z,460.7
2023-10-09T07:03:47.810Z,460.9
2023-10-09T07:04:49.941Z,460.9
2023-10-09T07:05:51.789Z,460.4
2023-10-09T07:06:53.973Z,460.5
2023-10-09T07:07:55.733Z,460.1
2023-10-09T07:08:57.493Z,460.1
2023-10-09T07:09:59.305Z,460.1
2023-10-09T07:11:01.105Z,460.3
2023-10-09T07:12:02.924Z,460.3
2023-10-09T07:13:09.365Z,461
2023-10-09T07:14:11.535Z,460.7
2023-10-09T07:15:13.754Z,461
2023-10-09T07:16:15.911Z,461.2
2023-10-09T07:17:18.327Z,461.1
2023-10-09T07:18:20.653Z,461.1
2023-10-09T07:19:22.509Z,460.9
2023-10-09T07:20:24.232Z,460.6
2023-10-09T07:21:26.334Z,460.7
2023-10-09T07:22:28.354Z,460.5
2023-10-09T07:23:30.108Z,460.2
2023-10-09T07:24:32.167Z,459.8
2023-10-09T07:25:33.986Z,459.5
2023-10-09T07:26:35.739Z,459.7
2023-10-09T07:27:37.700Z,459.8
2023-10-09T07:28:39.446Z,460
2023-10-09T07:29:41.213Z,460
2023-10-09T07:30:43.275Z,460
2023-10-09T07:31:49.925Z,460.3
2023-10-09T07:32:51.979Z,460.6
2023-10-09T07:33:54.138Z,460.4
2023-10-09T07:34:56.061Z,460.9
2023-10-09T07:35:57.751Z,460.9
2023-10-09T07:36:59.494Z,461.3
2023-10-09T07:38:01.464Z,461.1
2023-10-09T07:39:03.372Z,461.2
2023-10-09T07:40:05.146Z,461.2
2023-10-09T07:41:07.112Z,461.7
2023-10-09T07:42:09.678Z,461.1
2023-10-09T07:43:11.729Z,461
2023-10-09T07:44:14.388Z,461.1
2023-10-09T07:45:16.520Z,461.2
2023-10-09T07:46:18.528Z,461.1
2023-10-09T07:47:20.367Z,461
2023-10-09T07:48:22.368Z,460.9
2023-10-09T07:49:24.174Z,461.1
2023-10-09T07:50:26.145Z,460.8
2023-10-09T07:51:27.952Z,460.9
2023-10-09T07:52:29.754Z,460.7
2023-10-09T07:53:31.638Z,461.3
2023-10-09T07:54:34.340Z,461.2
2023-10-09T07:55:36.192Z,461
2023-10-09T07:56:37.993Z,461
2023-10-09T07:57:41.100Z,461.2
2023-10-09T07:58:42.917Z,461.5
2023-10-09T07:59:44.747Z,460.9
2023-10-09T08:00:46.838Z,460.5
2023-10-09T08:01:48.697Z,460.2
2023-10-09T08:02:50.862Z,460.4
2023-10-09T08:03:53.043Z,460.4
2023-10-09T08:04:55.065Z,460.4
2023-10-09T08:05:56.790Z,460.3
2023-10-09T08:08:31.296Z,460.1
2023-10-09T08:09:39.892Z,460.3
2023-10-09T08:10:41.802Z,460.4
2023-10-09T08:11:43.554Z,460.7
2023-10-09T08:12:45.668Z,461.6
2023-10-09T08:13:47.449Z,460.8
2023-10-09T08:14:49.251Z,460.7
2023-10-09T08:15:51.755Z,460.9
2023-10-09T08:16:53.988Z,460.7
2023-10-09T08:17:56.663Z,461.1
2023-10-09T08:18:58.838Z,460.4
2023-10-09T08:20:00.705Z,460.8
2023-10-09T08:21:02.415Z,460.9
2023-10-09T08:22:04.184Z,460.5
2023-10-09T08:23:05.952Z,460.9
2023-10-09T08:24:07.809Z,461
2023-10-09T08:25:10.335Z,460.8
2023-10-09T08:26:12.387Z,461.4
2023-10-09T08:27:14.362Z,461.4
2023-10-09T08:28:16.187Z,461.6
2023-10-09T08:29:17.922Z,462.2
2023-10-09T08:30:20.572Z,462.1
2023-10-09T08:31:22.540Z,462.6
2023-10-09T08:35:01.342Z,463
2023-10-09T08:36:04.472Z,462.6
2023-10-09T08:37:07.668Z,463
2023-10-09T08:38:10.384Z,462.5
2023-10-09T08:39:12.809Z,462.7
2023-10-09T08:40:14.915Z,462.6
2023-10-09T08:41:16.694Z,462.8
2023-10-09T08:42:18.438Z,462.8
2023-10-09T08:43:20.170Z,463.4
2023-10-09T08:44:21.949Z,463.4
2023-10-09T08:45:23.802Z,464
2023-10-09T08:46:25.717Z,464
2023-10-09T08:47:27.709Z,464.3
2023-10-09T08:48:29.474Z,463.9
2023-10-09T08:49:31.417Z,464.4
2023-10-09T08:50:33.445Z,464.4
2023-10-09T08:51:35.301Z,464.6
2023-10-09T08:52:37.279Z,464.6
2023-10-09T08:53:39.006Z,464.6
2023-10-09T08:54:40.787Z,464.8
2023-10-09T08:55:43.266Z,465
2023-10-09T08:56:45.090Z,465.8
2023-10-09T08:57:46.972Z,465.6
2023-10-09T08:58:49.076Z,465.6
2023-10-09T08:59:50.844Z,465.8
2023-10-09T09:00:52.771Z,465.5
2023-10-09T09:01:54.697Z,465.9
2023-10-09T09:02:56.830Z,464.9
2023-10-09T09:03:58.931Z,465.6
2023-10-09T09:05:01.753Z,465.2
2023-10-09T09:06:03.803Z,465.3
2023-10-09T09:07:06.065Z,465.5
2023-10-09T09:08:08.083Z,465.7
2023-10-09T09:09:09.914Z,466
2023-10-09T09:10:11.616Z,466
2023-10-09T09:11:14.231Z,466.1
2023-10-09T09:12:16.296Z,466.1
2023-10-09T09:13:18.003Z,465.6
2023-10-09T09:14:19.728Z,465.4
2023-10-09T09:15:21.972Z,465.5
2023-10-09T09:16:24.241Z,465.8
2023-10-09T09:17:26.848Z,465.3
2023-10-09T09:18:28.869Z,464.9
2023-10-09T09:19:30.841Z,464.9
2023-10-09T09:20:32.551Z,464.9
2023-10-09T09:21:34.292Z,464.5
2023-10-09T09:22:36.256Z,464.6
2023-10-09T09:23:38.021Z,464.3
2023-10-09T09:24:39.774Z,464.9
2023-10-09T09:25:41.912Z,465.4
2023-10-09T09:26:43.760Z,465.7
2023-10-09T09:27:45.486Z,465.2
2023-10-09T09:28:47.434Z,465.6
2023-10-09T09:29:49.163Z,465.4
2023-10-09T09:30:51.023Z,465.6
2023-10-09T09:31:52.968Z,465.9
2023-10-09T09:32:55.108Z,465.9
2023-10-09T09:33:56.998Z,465.6
2023-10-09T09:34:59.459Z,465.9
2023-10-09T09:36:01.249Z,465.6
2023-10-09T09:37:03.001Z,465.7
2023-10-09T09:38:05.030Z,466.5
2023-10-09T09:39:06.886Z,466.2
2023-10-09T09:40:08.726Z,466.1
2023-10-09T09:41:11.094Z,466.5
2023-10-09T09:42:13.136Z,466.5
2023-10-09T09:43:17.012Z,466.7
2023-10-09T09:44:18.698Z,467.1
2023-10-09T09:45:20.486Z,467.1
2023-10-09T09:46:26.318Z,467.1
2023-10-09T09:47:29.861Z,467.3
2023-10-09T09:48:31.906Z,467.1
2023-10-09T09:49:33.698Z,467.1
2023-10-09T09:50:35.445Z,467.1
2023-10-09T09:51:37.182Z,467.2
2023-10-09T09:52:39.549Z,467.7
2023-10-09T09:53:41.791Z,467.5
2023-10-09T09:54:43.780Z,467.7
2023-10-09T09:55:45.611Z,467.8
2023-10-09T09:56:47.378Z,467.7
2023-10-09T09:57:49.360Z,468.2
2023-10-09T09:58:52.016Z,467.6
2023-10-09T09:59:53.950Z,467.8
2023-10-09T10:00:56.129Z,467.8
2023-10-09T10:01:58.777Z,468.2
2023-10-09T10:03:01.354Z,468.8
2023-10-09T10:04:03.171Z,469.1
2023-10-09T10:05:05.146Z,469.4
2023-10-09T10:06:06.922Z,469.9
2023-10-09T10:07:08.649Z,469.8
2023-10-09T10:08:10.425Z,470.5
2023-10-09T10:09:12.667Z,470.4
2023-10-09T10:10:14.638Z,470.3
2023-10-09T10:11:16.421Z,470.3
2023-10-09T10:12:18.286Z,469.9
2023-10-09T10:13:20.382Z,470.6
2023-10-09T10:14:22.215Z,470.2
2023-10-09T10:15:23.990Z,470.7
2023-10-09T10:16:26.142Z,470.7
2023-10-09T10:17:29.162Z,470.8
2023-10-09T10:18:31.327Z,471.3
2023-10-09T10:19:33.382Z,471.2
2023-10-09T10:20:35.127Z,471.7
2023-10-09T10:21:36.860Z,472.3
2023-10-09T10:22:38.758Z,472.2
2023-10-09T10:23:40.560Z,471.9
2023-10-09T10:24:42.292Z,472
2023-10-09T10:25:44.432Z,472.2
2023-10-09T10:26:46.235Z,472.5
2023-10-09T10:27:47.953Z,472.9
2023-10-09T10:28:50.249Z,472.8
2023-10-09T10:29:52.144Z,472.6
2023-10-09T10:30:58.201Z,473.1
2023-10-09T10:32:00.194Z,472.9
2023-10-09T10:33:02.194Z,473.3
2023-10-09T10:34:03.994Z,473.5
2023-10-09T10:35:05.818Z,474.1
2023-10-09T10:36:07.674Z,473.8
2023-10-09T10:37:09.379Z,474
2023-10-09T10:38:11.181Z,474.2
2023-10-09T10:39:14.402Z,474.1
2023-10-09T10:40:16.280Z,474.4
2023-10-09T10:41:19.082Z,475
2023-10-09T10:42:20.884Z,475.2
2023-10-09T10:43:22.629Z,476.2
2023-10-09T10:44:24.473Z,476.5
2023-10-09T10:45:26.283Z,476.3
2023-10-09T10:46:28.483Z,476.6
2023-10-09T10:47:30.838Z,476.4
2023-10-09T10:48:32.754Z,476.6
2023-10-09T10:49:35.219Z,477.1
2023-10-09T10:50:37.187Z,477.3
2023-10-09T10:51:39.456Z,477.4
2023-10-09T10:52:42.018Z,477.4
2023-10-09T10:53:44.569Z,477.5
2023-10-09T10:54:46.761Z,477.2
2023-10-09T10:55:48.974Z,477.4
2023-10-09T10:56:50.891Z,477.2
2023-10-09T10:57:52.672Z,477.6
2023-10-09T10:58:54.724Z,477.7
2023-10-09T10:59:56.865Z,477.8
2023-10-09T11:00:58.876Z,477.9
2023-10-09T11:02:01.321Z,477.8
2023-10-09T11:03:04.130Z,478
2023-10-09T11:04:06.796Z,478.2
2023-10-09T11:05:09.760Z,478.4
2023-10-09T11:06:11.699Z,478.5
2023-10-09T11:07:13.504Z,478.7
2023-10-09T11:08:15.281Z,478.8
2023-10-09T11:09:16.995Z,478.5
2023-10-09T11:10:18.715Z,478.9
2023-10-09T11:11:20.424Z,479
2023-10-09T11:12:22.112Z,479
2023-10-09T11:13:23.883Z,479
2023-10-09T11:14:26.233Z,478.9
2023-10-09T11:15:28.202Z,479
2023-10-09T11:16:30.696Z,479.2
2023-10-09T11:17:32.820Z,479.3
2023-10-09T11:18:34.802Z,479.7
2023-10-09T11:19:36.914Z,479.4
2023-10-09T11:20:38.665Z,480.3
2023-10-09T11:21:40.404Z,481.4
2023-10-09T11:22:42.356Z,481.6
2023-10-09T11:23:44.310Z,482.4
2023-10-09T11:24:46.056Z,482.5
2023-10-09T11:25:48.104Z,483.1
2023-10-09T11:26:49.865Z,483.2
2023-10-09T11:27:52.238Z,483.3
2023-10-09T11:28:54.705Z,483.3
2023-10-09T11:29:56.464Z,483.6
2023-10-09T11:30:58.728Z,483.5
2023-10-09T11:32:00.933Z,484
2023-10-09T11:33:03.027Z,483.9
2023-10-09T11:34:04.718Z,484.2
2023-10-09T11:35:06.813Z,483.9
2023-10-09T11:36:08.556Z,484.1
2023-10-09T11:37:10.303Z,484.1
2023-10-09T11:38:12.359Z,484.2
2023-10-09T11:39:14.162Z,484.4
2023-10-09T11:40:15.940Z,483.9
2023-10-09T11:41:17.700Z,483.6
2023-10-09T11:42:19.455Z,483.5
2023-10-09T11:43:21.160Z,483.4
2023-10-09T11:44:22.870Z,483.7
2023-10-09T11:45:24.816Z,484
2023-10-09T11:46:27.123Z,484.1
2023-10-09T11:47:29.138Z,483.9
2023-10-09T11:48:30.856Z,484.1
2023-10-09T11:49:32.803Z,484.2
2023-10-09T11:50:34.557Z,484.2
2023-10-09T11:51:36.383Z,484.6
2023-10-09T11:52:38.298Z,484.7
2023-10-09T11:53:40.418Z,485.1
2023-10-09T11:54:42.142Z,485.1
2023-10-09T11:55:43.995Z,485.3
2023-10-09T11:56:45.803Z,485.5
2023-10-09T11:57:47.604Z,485.5
2023-10-09T11:58:49.469Z,485.9
2023-10-09T11:59:51.326Z,485.6
2023-10-09T12:00:53.394Z,486
2023-10-09T12:01:55.999Z,486.3
2023-10-09T12:02:58.634Z,486.3
2023-10-09T12:04:00.858Z,486.8
2023-10-09T12:05:02.826Z,486.9
2023-10-09T12:06:04.620Z,487.2
2023-10-09T12:07:06.343Z,487.5
2023-10-09T12:08:08.191Z,488.1
2023-10-09T12:09:10.032Z,488.1
2023-10-09T12:10:11.735Z,488.2
2023-10-09T12:11:13.716Z,488.6
2023-10-09T12:12:15.638Z,489.1
2023-10-09T12:13:17.559Z,489.1
2023-10-09T12:14:19.306Z,489.3
2023-10-09T12:15:21.138Z,489.3
2023-10-09T12:16:22.980Z,489.2
2023-10-09T12:17:25.322Z,489.6
2023-10-09T12:18:27.556Z,489.4
2023-10-09T12:19:29.694Z,489.6
2023-10-09T12:20:31.986Z,490
2023-10-09T12:21:33.916Z,490.2
2023-10-09T12:22:35.896Z,490.2
2023-10-09T12:23:38.000Z,490
2023-10-09T12:24:39.870Z,490.2
2023-10-09T12:25:41.772Z,490
2023-10-09T12:26:43.516Z,489.9
2023-10-09T12:27:45.283Z,490.1
2023-10-09T12:28:48.066Z,489.8
2023-10-09T12:29:51.387Z,489.9
2023-10-09T12:30:53.241Z,489.9
2023-10-09T12:31:55.244Z,490.2
2023-10-09T12:32:57.854Z,490.3
2023-10-09T12:33:59.968Z,490.7
2023-10-09T12:35:01.999Z,491.2
2023-10-09T12:36:03.919Z,491.3
2023-10-09T12:37:05.660Z,491.3
2023-10-09T12:38:07.771Z,491.6
2023-10-09T12:39:09.504Z,491.6
2023-10-09T12:40:11.198Z,491.6
2023-10-09T12:41:13.015Z,491.6
2023-10-09T12:42:14.835Z,491.5
2023-10-09T12:43:16.663Z,491.5
2023-10-09T12:44:18.857Z,491.6
2023-10-09T12:45:20.874Z,491.7
2023-10-09T12:46:22.732Z,491.9
2023-10-09T12:47:24.980Z,492.5
2023-10-09T12:48:27.222Z,492.2
2023-10-09T12:49:29.027Z,492.2
2023-10-09T12:50:30.820Z,492.8
2023-10-09T12:51:32.771Z,493
2023-10-09T12:52:34.592Z,492.7
2023-10-09T12:53:36.305Z,493.4
2023-10-09T12:54:38.005Z,493.5
2023-10-09T12:55:39.897Z,493.3
2023-10-09T12:56:41.610Z,493.6
2023-10-09T12:57:43.403Z,493.4
2023-10-09T12:58:45.368Z,494.1
2023-10-09T12:59:47.601Z,494.1
2023-10-09T13:00:49.409Z,494.1
2023-10-09T13:01:51.225Z,493.9
2023-10-09T13:02:53.502Z,494.3
2023-10-09T13:03:56.127Z,494.4
2023-10-09T13:04:58.145Z,494.3
2023-10-09T13:06:00.266Z,494.5
2023-10-09T13:07:02.016Z,494.6
2023-10-09T13:08:04.092Z,494.6
2023-10-09T13:09:05.952Z,494.8
2023-10-09T13:10:08.169Z,494.3
2023-10-09T13:11:10.169Z,494.5
2023-10-09T13:12:11.947Z,494.6
2023-10-09T13:13:13.720Z,495
2023-10-09T13:14:16.895Z,495.7
2023-10-09T13:15:19.109Z,495.7
2023-10-09T13:16:20.900Z,495.7
2023-10-09T13:17:23.361Z,496.1
2023-10-09T13:18:25.442Z,495.9
2023-10-09T13:19:27.395Z,496.3
2023-10-09T13:20:29.179Z,496.4
2023-10-09T13:21:30.947Z,496.9
2023-10-09T13:22:32.922Z,497
2023-10-09T13:23:34.745Z,496.8
2023-10-09T13:24:36.495Z,497.1
2023-10-09T13:25:38.509Z,497
2023-10-09T13:26:40.929Z,497.3
2023-10-09T13:27:42.705Z,497.3